createdAt,value
2023-02-09T00:01:05.738Z,-10.08
2023-02-09T00:03:34.396Z,-10.09
2023-02-09T00:06:02.283Z,-10.10
2023-02-09T00:08:30.146Z,-10.12
2023-02-09T00:10:58.384Z,-10.14
2023-02-09T00:13:25.775Z,-10.16
2023-02-09T00:15:54.123Z,-10.18
2023-02-09T00:18:24.521Z,-10.21
2023-02-09T00:20:59.775Z,-10.24
2023-02-09T00:23:27.769Z,-10.25
2023-02-09T00:25:55.144Z,-10.25
2023-02-09T00:28:22.442Z,-10.25
2023-02-09T00:30:51.277Z,-10.26
2023-02-09T00:33:18.617Z,-10.26
2023-02-09T00:35:45.994Z,-10.25
2023-02-09T00:38:13.422Z,-10.27
2023-02-09T00:40:41.208Z,-10.30
2023-02-09T00:43:08.846Z,-10.31
2023-02-09T00:45:36.369Z,-10.32
2023-02-09T00:48:03.594Z,-10.37
2023-02-09T00:50:30.912Z,-10.38
2023-02-09T00:52:57.980Z,-10.38
2023-02-09T00:55:25.270Z,-10.37
2023-02-09T00:57:53.254Z,-10.36
2023-02-09T01:00:21.056Z,-10.35
2023-02-09T01:02:49.048Z,-10.35
2023-02-09T01:05:16.604Z,-10.37
2023-02-09T01:07:45.106Z,-10.38
2023-02-09T01:10:12.466Z,-10.40
2023-02-09T01:12:42.664Z,-10.40
2023-02-09T01:15:10.724Z,-10.39
2023-02-09T01:17:46.880Z,-10.39
2023-02-09T01:20:14.340Z,-10.40
2023-02-09T01:22:42.366Z,-10.41
2023-02-09T01:25:09.882Z,-10.43
2023-02-09T01:27:37.355Z,-10.45
2023-02-09T01:30:04.746Z,-10.47
2023-02-09T01:32:32.549Z,-10.50
2023-02-09T01:35:00.208Z,-10.54
2023-02-09T01:37:27.606Z,-10.54
2023-02-09T01:39:55.000Z,-10.54
2023-02-09T01:42:22.096Z,-10.54
2023-02-09T01:44:49.390Z,-10.54
2023-02-09T01:47:18.138Z,-10.52
2023-02-09T01:49:46.108Z,-10.52
2023-02-09T01:52:25.605Z,-10.51
2023-02-09T01:55:03.352Z,-10.52
2023-02-09T01:57:41.972Z,-10.52
2023-02-09T02:00:13.221Z,-10.55
2023-02-09T02:02:47.740Z,-10.57
2023-02-09T02:05:14.980Z,-10.58
2023-02-09T02:07:54.192Z,-10.59
2023-02-09T02:10:21.728Z,-10.61
2023-02-09T02:12:52.255Z,-10.62
2023-02-09T02:15:19.404Z,-10.67
2023-02-09T06:17:49.111Z,-11.30
2023-02-09T06:20:17.901Z,-11.04
2023-02-09T06:22:47.332Z,-10.97
2023-02-09T06:25:16.147Z,-10.90
2023-02-09T06:27:44.620Z,-10.81
2023-02-09T06:30:14.072Z,-10.72
2023-02-09T06:32:42.944Z,-10.59
2023-02-09T06:35:11.399Z,-10.44
2023-02-09T06:37:39.892Z,-10.30
2023-02-09T06:40:08.875Z,-10.14
2023-02-09T06:42:46.659Z,-9.94
2023-02-09T06:45:16.677Z,-9.71
2023-02-09T06:47:45.596Z,-9.47
2023-02-09T06:50:15.690Z,-9.22
2023-02-09T06:52:46.286Z,-8.97
2023-02-09T06:55:15.196Z,-8.72
2023-02-09T06:57:43.952Z,-8.46
2023-02-09T07:00:13.652Z,-8.17
2023-02-09T07:02:45.906Z,-7.88
2023-02-09T07:05:15.643Z,-7.62
2023-02-09T07:07:44.517Z,-7.39
2023-02-09T07:10:14.819Z,-7.17
2023-02-09T07:12:44.137Z,-6.95
2023-02-09T07:15:13.647Z,-6.72
2023-02-09T07:17:44.416Z,-6.57
2023-02-09T07:20:13.459Z,-6.50
2023-02-09T07:22:42.297Z,-6.44
2023-02-09T07:25:10.980Z,-6.36
2023-02-09T07:27:44.510Z,-6.17
2023-02-09T07:30:15.514Z,-5.99
2023-02-09T07:32:44.021Z,-5.84
2023-02-09T07:35:12.650Z,-5.68
2023-02-09T07:37:41.108Z,-5.46
2023-02-09T07:40:10.256Z,-5.24
2023-02-09T07:42:39.434Z,-5.07
2023-02-09T07:45:10.226Z,-4.96
2023-02-09T07:47:39.088Z,-4.86
2023-02-09T07:50:07.725Z,-4.74
2023-02-09T07:52:36.180Z,-4.66
2023-02-09T07:55:05.704Z,-4.52
2023-02-09T07:57:34.296Z,-4.37
2023-02-09T08:00:04.433Z,-4.19
2023-02-09T08:02:37.107Z,-4.02
2023-02-09T08:05:08.328Z,-3.89
2023-02-09T08:07:36.917Z,-3.76
2023-02-09T08:10:06.818Z,-3.72
2023-02-09T08:12:54.334Z,-3.59
2023-02-09T08:15:22.910Z,-3.41
2023-02-09T08:17:54.789Z,-3.21
2023-02-09T08:20:30.935Z,-3.16
2023-02-09T08:23:11.781Z,-3.13
2023-02-09T08:25:41.607Z,-3.20
2023-02-09T08:28:12.029Z,-3.25
2023-02-09T08:30:41.821Z,-3.12
2023-02-09T08:33:16.591Z,-3.02
2023-02-09T08:35:46.077Z,-2.99
2023-02-09T08:38:16.602Z,-2.92
2023-02-09T08:40:59.054Z,-2.90
2023-02-09T08:43:33.065Z,-2.77
2023-02-09T08:46:07.061Z,-2.61
2023-02-09T08:48:46.554Z,-2.46
2023-02-09T08:51:18.362Z,-2.50
2023-02-09T08:53:52.809Z,-2.43
2023-02-09T08:56:26.841Z,-2.38
2023-02-09T08:58:56.419Z,-2.47
2023-02-09T09:01:26.196Z,-2.46
2023-02-09T09:03:57.081Z,-2.40
2023-02-09T09:06:27.331Z,-2.26
2023-02-09T09:08:55.866Z,-2.07
2023-02-09T09:11:24.440Z,-2.07
2023-02-09T09:13:53.020Z,-2.16
2023-02-09T09:16:25.672Z,-2.08
2023-02-09T09:18:54.202Z,-1.98
2023-02-09T09:21:22.797Z,-1.74
2023-02-09T09:23:59.371Z,-1.59
2023-02-09T09:26:28.152Z,-1.57
2023-02-09T09:28:56.705Z,-1.58
2023-02-09T09:31:25.583Z,-1.47
2023-02-09T09:33:55.678Z,-1.41
2023-02-09T09:36:24.846Z,-1.39
2023-02-09T09:38:56.444Z,-1.38
2023-02-09T09:41:26.699Z,-1.43
2023-02-09T09:43:56.742Z,-1.48
2023-02-09T09:46:34.293Z,-1.37
2023-02-09T09:49:04.592Z,-1.12
2023-02-09T09:51:36.224Z,-0.81
2023-02-09T09:54:06.747Z,-0.59
2023-02-09T09:56:35.750Z,-0.63
2023-02-09T09:59:04.940Z,-0.74
2023-02-09T10:01:35.932Z,-0.78
2023-02-09T10:04:15.101Z,-0.87
2023-02-09T10:06:44.869Z,-0.84
2023-02-09T10:09:43.274Z,-0.70
2023-02-09T10:12:30.229Z,-0.49
2023-02-09T10:15:42.656Z,-0.46
2023-02-09T10:18:26.477Z,-0.54
2023-02-09T10:20:57.337Z,-0.48
2023-02-09T10:23:26.948Z,-0.34
2023-02-09T10:26:24.828Z,-0.26
2023-02-09T10:29:21.231Z,-0.25
2023-02-09T10:32:07.492Z,-0.17
2023-02-09T10:34:41.221Z,-0.08
2023-02-09T10:37:17.646Z,-0.12
2023-02-09T10:39:48.188Z,-0.06
2023-02-09T10:42:23.159Z,0.07
2023-02-09T10:44:53.704Z,0.08
2023-02-09T10:47:25.277Z,0.06
2023-02-09T10:50:12.702Z,0.07
2023-02-09T10:53:03.376Z,-0.05
2023-02-09T10:55:38.196Z,-0.10
2023-02-09T10:58:09.880Z,-0.12
2023-02-09T11:00:41.833Z,-0.19
2023-02-09T11:03:21.624Z,-0.30
2023-02-09T11:06:00.184Z,-0.39
2023-02-09T11:08:35.650Z,-0.47
2023-02-09T11:11:34.277Z,-0.45
2023-02-09T11:14:04.430Z,-0.44
2023-02-09T11:16:53.444Z,-0.34
2023-02-09T11:19:47.394Z,-0.31
2023-02-09T11:22:44.031Z,-0.30
2023-02-09T11:25:32.693Z,-0.26
2023-02-09T11:28:59.119Z,-0.38
2023-02-09T11:32:07.578Z,-0.40
2023-02-09T11:35:01.822Z,-0.33
2023-02-09T11:37:41.065Z,-0.24
2023-02-09T11:40:27.883Z,-0.15
2023-02-09T11:43:11.098Z,-0.09
2023-02-09T11:45:47.560Z,-0.15
2023-02-09T11:48:41.320Z,-0.14
2023-02-09T11:51:19.755Z,-0.21
2023-02-09T11:54:04.364Z,-0.34
2023-02-09T11:56:41.904Z,-0.48
2023-02-09T11:59:17.815Z,-0.58
2023-02-09T12:02:03.557Z,-0.67
2023-02-09T12:04:46.265Z,-0.78
2023-02-09T12:07:27.476Z,-0.88
2023-02-09T12:10:15.755Z,-1.01
2023-02-09T12:12:48.859Z,-1.18
2023-02-09T12:15:20.086Z,-1.30
2023-02-09T12:18:13.348Z,-1.36
2023-02-09T12:20:52.842Z,-1.24
2023-02-09T12:23:32.560Z,-0.99
2023-02-09T12:26:13.688Z,-0.64
2023-02-09T12:28:49.885Z,-0.43
2023-02-09T12:31:18.616Z,-0.43
2023-02-09T12:33:47.643Z,-0.45
2023-02-09T12:36:16.834Z,-0.49
2023-02-09T12:38:55.990Z,-0.45
2023-02-09T12:41:30.214Z,-0.27
2023-02-09T12:44:11.170Z,0.01
2023-02-09T12:46:46.863Z,0.28
2023-02-09T12:49:16.051Z,0.31
2023-02-09T12:51:50.781Z,0.26
2023-02-09T12:54:43.241Z,0.38
2023-02-09T12:57:18.232Z,0.80
2023-02-09T12:59:55.547Z,1.04
2023-02-09T13:02:40.260Z,1.29
2023-02-09T13:05:19.683Z,1.53
2023-02-09T13:08:00.823Z,1.59
2023-02-09T13:10:31.532Z,1.61
2023-02-09T13:13:07.859Z,1.57
2023-02-09T13:16:05.649Z,1.44
2023-02-09T13:18:53.653Z,1.30
2023-02-09T13:21:31.242Z,1.35
2023-02-09T13:24:00.574Z,1.44
2023-02-09T13:26:33.199Z,1.56
2023-02-09T13:29:20.315Z,1.55
2023-02-09T13:32:01.482Z,1.37
2023-02-09T13:34:30.552Z,1.25
2023-02-09T13:37:18.936Z,1.21
2023-02-09T13:39:57.968Z,1.09
2023-02-09T13:42:27.885Z,0.98
2023-02-09T13:44:58.188Z,0.83
2023-02-09T13:47:27.182Z,0.47
2023-02-09T13:50:12.177Z,0.12
2023-02-09T13:52:43.014Z,-0.31
2023-02-09T13:55:41.016Z,-0.52
2023-02-09T13:58:12.046Z,-0.62
2023-02-09T14:00:41.814Z,-0.79
2023-02-09T14:03:20.138Z,-0.95
2023-02-09T14:22:46.377Z,-1.84
2023-02-09T14:25:15.067Z,-2.27
2023-02-09T14:27:47.411Z,-2.53
2023-02-09T14:30:25.911Z,-2.76
2023-02-09T14:32:56.277Z,-2.98
2023-02-09T14:35:29.380Z,-3.19
2023-02-09T14:37:58.763Z,-3.38
2023-02-09T14:40:27.215Z,-3.54
2023-02-09T14:43:11.209Z,-3.69
2023-02-09T14:45:45.097Z,-3.83
2023-02-09T14:48:27.196Z,-3.96
2023-02-09T14:51:00.593Z,-4.10
2023-02-09T14:53:32.461Z,-4.23
2023-02-09T14:56:01.765Z,-4.34
2023-02-09T14:58:31.989Z,-4.44
2023-02-09T15:01:02.393Z,-4.55
2023-02-09T15:03:31.089Z,-4.65
2023-02-09T15:06:03.466Z,-4.73
2023-02-09T15:08:35.221Z,-4.82
2023-02-09T15:11:26.740Z,-4.90
2023-02-09T15:14:02.750Z,-4.97
2023-02-09T15:16:32.210Z,-5.02
2023-02-09T15:19:01.294Z,-5.05
2023-02-09T15:21:30.515Z,-5.08
2023-02-09T15:23:59.694Z,-5.11
2023-02-09T15:26:29.144Z,-5.14
2023-02-09T15:28:57.540Z,-5.17
2023-02-09T15:31:29.077Z,-5.20
2023-02-09T15:33:58.017Z,-5.25
2023-02-09T15:36:27.626Z,-5.30
2023-02-09T15:38:56.819Z,-5.38
2023-02-09T15:41:44.658Z,-5.45
2023-02-09T15:44:47.848Z,-5.51
2023-02-09T15:47:55.037Z,-5.61
2023-02-09T15:50:23.721Z,-5.69
2023-02-09T15:52:53.334Z,-5.75
2023-02-09T15:55:22.231Z,-5.82
2023-02-09T15:57:51.826Z,-5.90
2023-02-09T16:00:25.368Z,-5.97
2023-02-09T16:02:54.992Z,-6.04
2023-02-09T16:05:23.872Z,-6.11
2023-02-09T16:07:52.623Z,-6.17
2023-02-09T16:10:29.222Z,-6.24
2023-02-09T16:12:58.229Z,-6.29
2023-02-09T16:15:27.688Z,-6.34
2023-02-09T16:17:56.160Z,-6.37
2023-02-09T16:20:26.244Z,-6.41
2023-02-09T16:22:55.169Z,-6.44
2023-02-09T16:25:25.286Z,-6.45
2023-02-09T16:27:54.407Z,-6.45
2023-02-09T16:30:35.812Z,-6.44
2023-02-09T16:33:04.954Z,-6.42
2023-02-09T16:35:35.446Z,-6.39
2023-02-09T16:38:16.175Z,-6.36
2023-02-09T16:40:45.167Z,-6.31
2023-02-09T18:13:57.636Z,-5.19
2023-02-09T18:16:26.547Z,-5.00
2023-02-09T18:18:55.619Z,-4.97
2023-02-09T18:21:24.306Z,-4.96
2023-02-09T18:23:52.896Z,-4.96
2023-02-09T18:26:21.509Z,-4.96
2023-02-09T18:28:50.668Z,-4.97
2023-02-09T18:31:20.635Z,-4.97
2023-02-09T18:33:50.433Z,-4.97
2023-02-09T18:36:20.207Z,-5.00
2023-02-09T18:38:51.264Z,-5.03
2023-02-09T18:41:19.729Z,-5.05
2023-02-09T18:43:49.808Z,-5.07
2023-02-09T18:46:20.103Z,-5.08
2023-02-09T18:48:48.862Z,-5.09
2023-02-09T18:51:17.541Z,-5.09
2023-02-09T18:53:46.133Z,-5.06
2023-02-09T18:56:18.474Z,-5.05
2023-02-09T18:58:47.182Z,-5.01
2023-02-09T19:01:15.883Z,-4.96
2023-02-09T19:03:44.658Z,-4.92
2023-02-09T19:06:13.260Z,-4.89
2023-02-09T19:08:41.752Z,-4.86
2023-02-09T19:11:13.801Z,-4.82
2023-02-09T19:13:42.376Z,-4.79
2023-02-09T19:16:12.356Z,-4.78
2023-02-09T19:18:41.276Z,-4.80
2023-02-09T19:21:09.823Z,-4.79
2023-02-09T19:23:38.360Z,-4.78
2023-02-09T19:26:07.130Z,-4.78
2023-02-09T19:28:36.025Z,-4.78
2023-02-09T19:31:12.629Z,-4.78
2023-02-09T19:33:42.301Z,-4.79
2023-02-09T19:36:10.888Z,-4.79
2023-02-09T19:38:39.981Z,-4.80
2023-02-09T19:41:12.667Z,-4.81
2023-02-09T19:43:41.371Z,-4.81
2023-02-09T19:46:13.579Z,-4.80
2023-02-09T19:48:42.507Z,-4.80
2023-02-09T19:51:11.001Z,-4.81
2023-02-09T19:53:39.889Z,-4.83
2023-02-09T19:56:14.289Z,-4.89
2023-02-09T19:58:45.747Z,-4.96
2023-02-09T20:01:15.619Z,-5.01
2023-02-09T20:03:44.154Z,-5.03
2023-02-09T20:06:13.462Z,-5.05
2023-02-09T20:08:42.561Z,-5.04
2023-02-09T20:11:14.193Z,-5.04
2023-02-09T20:13:42.982Z,-5.02
2023-02-09T20:16:15.087Z,-5.01
2023-02-09T20:18:43.853Z,-5.01
2023-02-09T20:21:12.725Z,-5.02
2023-02-09T20:23:45.769Z,-5.01
2023-02-09T20:26:19.622Z,-5.02
2023-02-09T20:28:49.122Z,-5.05
2023-02-09T20:31:26.192Z,-5.08
2023-02-09T20:33:56.020Z,-5.09
2023-02-09T20:36:25.673Z,-5.11
2023-02-09T20:38:55.266Z,-5.12
2023-02-09T20:41:24.018Z,-5.12
2023-02-09T20:44:11.652Z,-5.13
2023-02-09T20:46:56.929Z,-5.13
2023-02-09T20:49:30.150Z,-5.15
2023-02-09T20:51:58.904Z,-5.18
2023-02-09T20:54:27.903Z,-5.19
2023-02-09T20:56:56.784Z,-5.21
2023-02-09T20:59:25.778Z,-5.22
2023-02-09T21:01:54.360Z,-5.23
2023-02-09T21:04:22.944Z,-5.24
2023-02-09T21:06:54.294Z,-5.24
2023-02-09T21:09:26.671Z,-5.25
2023-02-09T21:11:55.661Z,-5.26
2023-02-09T21:14:27.946Z,-5.26
2023-02-09T21:17:09.001Z,-5.26
2023-02-09T21:19:38.230Z,-5.25
2023-02-09T21:22:07.294Z,-5.27
2023-02-09T21:24:38.543Z,-5.30
2023-02-09T21:27:07.228Z,-5.36
2023-02-09T21:29:36.220Z,-5.39
2023-02-09T21:32:06.498Z,-5.44
2023-02-09T21:34:36.128Z,-5.49
2023-02-09T21:37:08.115Z,-5.54
2023-02-09T21:39:39.768Z,-5.60
2023-02-09T21:42:28.817Z,-5.66
2023-02-09T21:44:58.036Z,-5.71
2023-02-09T21:47:31.222Z,-5.75
2023-02-09T21:49:59.905Z,-5.79
2023-02-09T21:52:30.112Z,-5.83
2023-02-09T21:54:58.507Z,-5.88
2023-02-09T21:57:28.194Z,-5.95
2023-02-09T21:59:56.978Z,-5.98
